Time;durP1;ratioP1;P1;durP2;ratioP2;P2;SDS_P1;SDS_P2;PMS_P1;PMS_P2;Temp;Humidity;BMP_temperature;BMP_pressure;BME280_temperature;BME280_humidity;BME280_pressure;Samples;Min_cycle;Max_cycle;Signal;HPM_P1;HPM_P2
2022/05/25 00:00:10;;;;;;;;;7.60;6.00;;;;;17.31;73.25;98788.22;5035726;28;45313;-67
2022/05/25 00:02:36;;;;;;;;;5.40;5.00;;;;;17.32;73.35;98791.75;5023560;28;45302;-67
2022/05/25 00:05:04;;;;;;;;;5.00;5.00;;;;;17.32;73.43;98783.75;5035495;28;45410;-67
2022/05/25 00:07:30;;;;;;;;;6.75;4.00;;;;;17.30;73.42;98788.34;5027952;28;46500;-66
2022/05/25 00:09:55;;;;;;;;;7.25;7.25;;;;;17.28;73.49;98785.78;5010644;28;45427;-66
2022/05/25 00:12:21;;;;;;;;;7.50;7.25;;;;;17.29;73.27;98779.50;5035790;28;45455;-66
2022/05/25 00:14:48;;;;;;;;;6.00;6.00;;;;;17.29;73.03;98781.31;5021838;28;45472;-67
2022/05/25 00:17:13;;;;;;;;;9.00;8.00;;;;;17.28;72.87;98780.47;5023512;28;45661;-67
2022/05/25 00:22:23;;;;;;;;;7.00;7.00;;;;;17.22;72.81;98780.06;5025569;28;45510;-67
2022/05/25 00:24:49;;;;;;;;;7.00;7.00;;;;;17.15;72.53;98790.31;5014239;28;45562;-67
2022/05/25 00:27:14;;;;;;;;;7.25;6.00;;;;;17.13;72.92;98802.03;5025781;28;45502;-67
2022/05/25 00:29:40;;;;;;;;;7.00;5.50;;;;;17.12;72.46;98803.84;5032594;28;45419;-67
2022/05/25 00:32:06;;;;;;;;;6.25;5.25;;;;;17.06;71.73;98807.81;5016880;28;45384;-66
2022/05/25 00:34:32;;;;;;;;;3.75;3.75;;;;;16.95;71.35;98813.03;5016890;28;45536;-67
2022/05/25 00:36:58;;;;;;;;;3.25;3.25;;;;;16.83;71.42;98821.91;4998158;28;48174;-67
2022/05/25 00:39:24;;;;;;;;;3.75;3.00;;;;;16.72;72.13;98825.31;5010934;28;45401;-67
2022/05/25 00:41:50;;;;;;;;;5.00;5.00;;;;;16.62;72.14;98829.53;5015924;28;45429;-67
2022/05/25 00:44:16;;;;;;;;;5.00;4.00;;;;;16.58;72.19;98828.06;5029008;28;45413;-68
2022/05/25 00:46:42;;;;;;;;;4.00;4.00;;;;;16.55;73.23;98836.25;5024367;28;45432;-66
2022/05/25 00:49:21;;;;;;;;;4.75;4.75;;;;;16.49;73.26;98828.69;5034073;28;45518;-66
2022/05/25 00:51:52;;;;;;;;;3.00;3.00;;;;;16.43;74.49;98826.44;5034928;28;45359;-67
2022/05/25 00:54:23;;;;;;;;;4.00;3.75;;;;;16.36;74.35;98819.84;5034432;28;45295;-66
2022/05/25 00:56:51;;;;;;;;;5.00;4.00;;;;;16.34;74.52;98819.09;5035163;28;45531;-67
2022/05/25 00:59:24;;;;;;;;;5.00;4.40;;;;;16.35;74.42;98820.81;5035592;28;45446;-67
2022/05/25 01:01:50;;;;;;;;;4.50;4.50;;;;;16.35;74.48;98816.34;5035267;28;45428;-66
2022/05/25 01:04:17;;;;;;;;;6.00;3.50;;;;;16.38;74.36;98813.47;5035438;28;45405;-67
2022/05/25 01:06:50;;;;;;;;;3.00;3.00;;;;;16.40;74.38;98819.53;5024656;28;46202;-67
2022/05/25 01:09:21;;;;;;;;;5.00;3.00;;;;;16.43;74.19;98821.13;5015152;28;45450;-67
2022/05/25 01:11:46;;;;;;;;;4.00;3.75;;;;;16.46;73.91;98818.25;5010467;28;45407;-66
2022/05/25 01:14:25;;;;;;;;;8.25;6.25;;;;;16.50;73.83;98818.91;5015704;28;45486;-67
2022/05/25 01:17:21;;;;;;;;;17.25;15.25;;;;;16.54;72.31;98809.75;5014844;28;47470;-67
2022/05/25 01:20:16;;;;;;;;;7.40;6.20;;;;;16.56;72.32;98814.00;5031182;28;45464;-67
2022/05/25 01:23:01;;;;;;;;;4.00;4.00;;;;;16.62;72.15;98810.06;5014373;28;45463;-66
2022/05/25 01:25:44;;;;;;;;;5.75;5.75;;;;;16.65;72.50;98813.38;5014576;28;45374;-66
2022/05/25 01:28:40;;;;;;;;;4.40;3.80;;;;;16.67;72.45;98810.63;5014615;28;45678;-67
2022/05/25 01:31:22;;;;;;;;;5.40;4.60;;;;;16.68;72.50;98820.31;5014211;28;45399;-67
2022/05/25 01:34:02;;;;;;;;;5.00;4.00;;;;;16.69;71.70;98809.56;5014936;28;45504;-67
2022/05/25 01:36:44;;;;;;;;;5.25;4.75;;;;;16.71;71.85;98809.47;5015091;28;45451;-66
2022/05/25 01:39:16;;;;;;;;;3.75;3.75;;;;;16.71;71.42;98823.63;5016971;28;46472;-67
2022/05/25 01:41:51;;;;;;;;;2.80;2.80;;;;;16.67;70.45;98824.78;5026586;28;45584;-67
2022/05/25 01:44:22;;;;;;;;;3.25;2.00;;;;;16.67;67.90;98826.59;5015033;28;45356;-67
2022/05/25 01:46:54;;;;;;;;;4.25;4.00;;;;;16.68;69.73;98838.94;5015262;28;45417;-67
2022/05/25 01:49:25;;;;;;;;;5.40;3.00;;;;;16.65;68.14;98833.84;5014810;28;45444;-67
2022/05/25 01:51:56;;;;;;;;;4.00;4.00;;;;;16.65;68.21;98833.84;5014860;28;45478;-66
2022/05/25 01:54:28;;;;;;;;;4.00;2.60;;;;;16.65;67.77;98837.34;5014733;28;45370;-66
2022/05/25 01:56:58;;;;;;;;;3.00;3.00;;;;;16.65;68.06;98841.81;5014608;28;45519;-66
2022/05/25 01:59:24;;;;;;;;;1.40;1.20;;;;;16.65;65.85;98841.81;5014957;28;46599;-66
2022/05/25 02:04:39;;;;;;;;;2.40;2.40;;;;;16.65;65.64;98849.81;5014917;28;45445;-66
2022/05/25 02:07:12;;;;;;;;;2.25;2.25;;;;;16.65;64.34;98855.13;5020085;28;45696;-66
2022/05/25 02:10:06;;;;;;;;;0.00;0.00;;;;;16.62;59.76;98861.47;5021045;28;45418;-66
2022/05/25 02:12:53;;;;;;;;;1.80;1.40;;;;;16.56;59.10;98856.59;4988325;28;45325;-67
2022/05/25 02:15:34;;;;;;;;;3.80;3.80;;;;;16.54;65.49;98850.53;5019952;28;45387;-66
2022/05/25 02:18:05;;;;;;;;;2.00;2.00;;;;;16.53;67.02;98842.63;5020402;28;45341;-66
2022/05/25 02:20:36;;;;;;;;;5.75;4.75;;;;;16.49;65.55;98857.97;4996732;28;47100;-66
2022/05/25 02:23:18;;;;;;;;;2.40;2.00;;;;;16.44;59.98;98862.72;5014677;28;45468;-67
2022/05/25 02:25:51;;;;;;;;;1.20;1.20;;;;;16.42;60.34;98880.63;5014452;28;45419;-67
2022/05/25 02:28:25;;;;;;;;;1.00;1.00;;;;;16.38;56.87;98885.31;5014508;28;45508;-67
2022/05/25 02:30:55;;;;;;;;;0.00;0.00;;;;;16.35;56.93;98874.00;5014493;28;45544;-67
2022/05/25 02:33:30;;;;;;;;;0.20;0.20;;;;;16.30;56.84;98874.31;5034442;28;45283;-67
2022/05/25 02:35:58;;;;;;;;;0.80;0.80;;;;;16.25;57.15;98884.44;5034347;28;45358;-67
2022/05/25 02:38:24;;;;;;;;;0.60;0.00;;;;;16.23;57.39;98890.81;5034383;28;45473;-67
2022/05/25 02:40:50;;;;;;;;;2.00;1.00;;;;;16.20;57.26;98880.38;5032504;28;45469;-67
2022/05/25 02:43:15;;;;;;;;;1.25;1.25;;;;;16.20;58.15;98885.69;5030882;28;45417;-67
2022/05/25 02:45:42;;;;;;;;;0.75;0.75;;;;;16.18;57.27;98882.28;5024212;28;45458;-67
2022/05/25 02:48:08;;;;;;;;;2.00;0.75;;;;;16.16;57.59;98876.19;5029637;28;45391;-67
2022/05/25 02:50:34;;;;;;;;;1.00;1.00;;;;;16.15;57.40;98893.97;5030628;28;45413;-67
2022/05/25 02:53:00;;;;;;;;;0.00;0.00;;;;;16.14;57.07;98894.06;5017759;28;45366;-67
2022/05/25 02:55:26;;;;;;;;;0.75;0.75;;;;;16.15;56.04;98893.97;5032693;28;45353;-67
2022/05/25 02:57:51;;;;;;;;;1.25;1.25;;;;;16.16;55.79;98903.66;5028958;28;45311;-67
2022/05/25 03:00:17;;;;;;;;;0.75;0.75;;;;;16.14;56.63;98902.91;5030767;28;46161;-66
2022/05/25 03:02:42;;;;;;;;;0.75;0.75;;;;;16.14;56.10;98918.00;5017583;28;45315;-67
2022/05/25 03:05:10;;;;;;;;;0.00;0.00;;;;;16.11;56.08;98913.72;5019452;28;45472;-67
2022/05/25 03:07:36;;;;;;;;;0.00;0.00;;;;;16.06;55.62;98926.50;5028804;28;45593;-67
2022/05/25 03:10:04;;;;;;;;;0.00;0.00;;;;;16.03;56.32;98903.63;5030719;28;45473;-66
2022/05/25 03:12:29;;;;;;;;;0.80;0.60;;;;;15.98;56.05;98911.03;5016969;28;45377;-66
2022/05/25 03:14:55;;;;;;;;;1.00;1.00;;;;;16.01;56.23;98896.69;5019500;28;45803;-66
2022/05/25 03:17:20;;;;;;;;;0.50;0.50;;;;;15.92;56.33;98911.41;5028654;28;45443;-67
2022/05/25 03:19:55;;;;;;;;;1.50;0.00;;;;;15.89;56.41;98913.44;5018904;28;45873;-66
2022/05/25 03:22:22;;;;;;;;;1.20;0.80;;;;;15.82;55.96;98910.31;5037405;28;45382;-66
2022/05/25 03:24:47;;;;;;;;;0.80;0.80;;;;;15.79;55.74;98926.47;5023705;28;45303;-67
2022/05/25 03:27:13;;;;;;;;;0.00;0.00;;;;;15.77;56.31;98923.06;5026682;28;45342;-67
2022/05/25 03:29:39;;;;;;;;;0.00;0.00;;;;;15.76;55.84;98913.38;5016684;28;45589;-67
2022/05/25 03:32:05;;;;;;;;;0.40;0.40;;;;;15.75;56.50;98924.97;5017152;28;45433;-67
2022/05/25 03:34:32;;;;;;;;;0.75;0.75;;;;;15.75;56.55;98926.78;5017165;28;45434;-67
2022/05/25 03:36:57;;;;;;;;;0.00;0.00;;;;;15.74;56.50;98933.06;5016999;28;45398;-67
2022/05/25 03:39:25;;;;;;;;;1.25;0.50;;;;;15.69;56.58;98920.91;5016852;28;45586;-67
2022/05/25 03:42:00;;;;;;;;;0.00;0.00;;;;;15.68;56.97;98921.00;5016615;28;45380;-67
2022/05/25 03:44:25;;;;;;;;;0.80;0.80;;;;;15.69;57.09;98931.53;5016691;28;45450;-67
2022/05/25 03:46:52;;;;;;;;;0.25;0.25;;;;;15.67;56.74;98933.44;5016592;28;45495;-67
2022/05/25 03:49:17;;;;;;;;;1.80;0.00;;;;;15.63;56.80;98931.91;5016213;28;46518;-67
2022/05/25 03:51:43;;;;;;;;;0.75;0.00;;;;;15.61;56.45;98935.63;5027477;28;45295;-66
2022/05/25 03:54:10;;;;;;;;;0.80;0.80;;;;;15.60;56.81;98931.25;5017824;28;45354;-66
2022/05/25 03:56:35;;;;;;;;;1.00;1.00;;;;;15.58;57.02;98941.16;5035713;28;45444;-67
2022/05/25 03:59:00;;;;;;;;;0.75;0.75;;;;;15.58;56.97;98946.47;5031794;28;46390;-67
2022/05/25 04:01:26;;;;;;;;;0.25;0.00;;;;;15.56;57.31;98945.69;5016362;28;45352;-67
2022/05/25 04:03:52;;;;;;;;;1.00;1.00;;;;;15.52;57.08;98949.47;5016288;28;45462;-67
2022/05/25 04:06:17;;;;;;;;;0.50;0.50;;;;;15.50;57.54;98948.69;5027044;28;45478;-67
2022/05/25 04:08:42;;;;;;;;;0.50;0.50;;;;;15.47;57.59;98949.75;5018030;28;46455;-66
2022/05/25 04:11:08;;;;;;;;;1.00;0.25;;;;;15.47;57.63;98955.06;5047974;28;45789;-67
2022/05/25 04:13:33;;;;;;;;;1.00;1.00;;;;;15.48;57.50;98961.22;5035795;28;45396;-66
2022/05/25 04:15:59;;;;;;;;;0.25;0.25;;;;;15.49;57.12;98953.16;5036260;28;45357;-67
2022/05/25 04:18:24;;;;;;;;;0.50;0.25;;;;;15.49;57.88;98955.81;5022032;28;45762;-66
2022/05/25 04:20:49;;;;;;;;;0.50;0.50;;;;;15.51;58.13;98947.75;5036246;28;45382;-66
2022/05/25 04:23:15;;;;;;;;;1.00;1.00;;;;;15.51;58.78;98950.41;5022424;28;45462;-67
2022/05/25 04:25:41;;;;;;;;;1.50;1.25;;;;;15.48;58.56;98961.22;5024925;28;45396;-67
2022/05/25 04:28:06;;;;;;;;;1.25;0.50;;;;;15.45;58.63;98953.44;5015964;28;45569;-66
2022/05/25 04:30:33;;;;;;;;;1.75;0.50;;;;;15.43;59.26;98968.63;5026714;28;45377;-67
2022/05/25 04:32:58;;;;;;;;;0.60;0.60;;;;;15.39;58.92;98957.34;5022595;28;45406;-67
2022/05/25 04:35:26;;;;;;;;;0.25;0.25;;;;;15.41;58.86;98960.78;5006244;28;45402;-67
2022/05/25 04:37:52;;;;;;;;;0.60;0.60;;;;;15.40;58.70;98960.88;5020425;28;45441;-67
2022/05/25 04:40:41;;;;;;;;;1.60;0.60;;;;;15.42;59.38;98978.38;5023921;28;45651;-67
2022/05/25 04:43:09;;;;;;;;;0.20;0.20;;;;;15.39;58.55;98985.72;5015155;28;45477;-67
2022/05/25 04:45:37;;;;;;;;;1.00;0.50;;;;;15.39;57.84;98991.03;5015363;28;45455;-67
2022/05/25 04:48:03;;;;;;;;;0.60;0.60;;;;;15.34;57.78;98988.66;5015475;28;45475;-66
2022/05/25 04:50:34;;;;;;;;;0.50;0.50;;;;;15.32;58.07;98994.06;5028680;28;45406;-66
2022/05/25 04:53:04;;;;;;;;;0.20;0.20;;;;;15.31;57.68;98981.72;5015495;28;45446;-66
2022/05/25 04:58:23;;;;;;;;;0.40;0.40;;;;;15.31;57.58;98995.00;5023114;28;45864;-67
2022/05/25 05:00:49;;;;;;;;;0.60;0.60;;;;;15.35;57.47;98985.03;5021910;28;45430;-66
2022/05/25 05:03:16;;;;;;;;;1.00;0.40;;;;;15.33;57.67;99006.38;5035350;28;45386;-66
2022/05/25 05:05:41;;;;;;;;;0.50;0.50;;;;;15.34;57.51;98992.16;5015134;28;45231;-67
2022/05/25 05:08:07;;;;;;;;;0.50;0.50;;;;;15.36;57.18;98992.06;5014808;28;46337;-67
2022/05/25 05:10:33;;;;;;;;;0.40;0.40;;;;;15.40;57.02;99003.38;5020815;28;45434;-67
2022/05/25 05:13:04;;;;;;;;;0.75;0.75;;;;;15.39;56.90;99005.16;5034722;28;45472;-67
2022/05/25 05:15:41;;;;;;;;;1.50;1.25;;;;;15.40;57.33;99006.03;5034953;28;45478;-67
2022/05/25 05:18:07;;;;;;;;;0.80;0.80;;;;;15.36;57.76;99002.69;5019479;28;46191;-67
2022/05/25 05:20:32;;;;;;;;;2.00;0.25;;;;;15.34;57.66;99001.94;5014525;28;45436;-66
2022/05/25 05:22:58;;;;;;;;;1.00;1.00;;;;;15.33;58.25;99010.84;5014413;28;45351;-67
2022/05/25 05:25:25;;;;;;;;;0.50;0.50;;;;;15.32;57.74;99020.63;5014021;28;45356;-67
2022/05/25 05:27:52;;;;;;;;;0.00;0.00;;;;;15.34;57.55;99017.88;5027786;28;45576;-67
2022/05/25 05:30:20;;;;;;;;;0.20;0.00;;;;;15.35;57.57;99023.09;5014449;28;45326;-67
2022/05/25 05:32:46;;;;;;;;;1.20;0.00;;;;;15.36;57.48;99027.47;5014426;28;45380;-67
2022/05/25 05:35:11;;;;;;;;;1.25;0.00;;;;;15.38;57.39;99026.50;5014153;28;45504;-67
2022/05/25 05:37:43;;;;;;;;;1.00;0.50;;;;;15.42;57.33;99034.19;5014701;28;45447;-67
2022/05/25 05:40:10;;;;;;;;;2.40;1.00;;;;;15.44;57.54;99020.81;5023401;28;45383;-67
2022/05/25 05:42:39;;;;;;;;;0.75;0.75;;;;;15.44;57.60;99037.59;5008533;28;45442;-66
2022/05/25 05:45:12;;;;;;;;;1.25;1.25;;;;;15.45;57.92;99028.69;4976584;28;45502;-66
2022/05/25 05:47:47;;;;;;;;;2.20;0.40;;;;;15.46;58.05;99035.72;4980363;28;48421;-66
2022/05/25 05:50:13;;;;;;;;;2.60;1.00;;;;;15.49;58.03;99037.31;5002002;28;45455;-66
2022/05/25 05:52:39;;;;;;;;;0.80;0.80;;;;;15.51;57.67;99030.97;4994005;28;45489;-66
2022/05/25 05:55:05;;;;;;;;;0.75;0.75;;;;;15.54;57.86;99040.56;4993811;28;45378;-65
2022/05/25 05:57:33;;;;;;;;;1.20;0.60;;;;;15.53;57.63;99050.34;5006157;28;45620;-66
2022/05/25 05:59:59;;;;;;;;;1.40;0.60;;;;;15.54;57.78;99048.53;4992984;28;45434;-66
2022/05/25 06:02:24;;;;;;;;;1.80;1.80;;;;;15.58;57.94;99048.28;5005561;28;45415;-66
2022/05/25 06:04:50;;;;;;;;;1.50;0.50;;;;;15.61;57.83;99058.72;4976286;28;45474;-66
2022/05/25 06:07:15;;;;;;;;;0.00;0.00;;;;;15.68;57.78;99056.53;4993522;28;46541;-66
2022/05/25 06:09:40;;;;;;;;;0.75;0.75;;;;;15.75;57.55;99057.88;4994150;28;45337;-66
2022/05/25 06:12:07;;;;;;;;;2.00;1.00;;;;;15.78;57.57;99056.81;4990085;28;45465;-66
2022/05/25 06:14:32;;;;;;;;;2.00;1.25;;;;;15.80;57.82;99069.06;4992960;28;45409;-66
2022/05/25 06:19:42;;;;;;;;;2.20;2.20;;;;;15.89;57.97;99067.66;4996681;28;45395;-66
2022/05/25 06:22:12;;;;;;;;;0.00;0.00;;;;;15.92;57.79;99070.13;4997415;28;45517;-66
2022/05/25 06:24:40;;;;;;;;;0.75;0.75;;;;;15.95;57.72;99076.06;4999352;28;45279;-66
2022/05/25 06:27:08;;;;;;;;;0.80;0.80;;;;;16.00;57.61;99073.13;5006807;28;45607;-66
2022/05/25 06:29:43;;;;;;;;;0.80;0.80;;;;;16.08;57.30;99083.31;4996716;28;45391;-66
2022/05/25 06:32:10;;;;;;;;;1.00;1.00;;;;;16.14;57.27;99077.59;5005836;28;45377;-66
2022/05/25 06:34:37;;;;;;;;;0.80;0.80;;;;;16.20;57.20;99087.84;5002216;28;45491;-67
2022/05/25 06:37:04;;;;;;;;;0.00;0.00;;;;;16.24;56.90;99089.38;5007393;28;46493;-66
2022/05/25 06:39:34;;;;;;;;;3.80;1.80;;;;;16.27;57.15;99099.78;5014621;28;45441;-66
2022/05/25 06:42:00;;;;;;;;;1.40;0.40;;;;;16.29;57.11;99087.25;5016631;28;45480;-66
2022/05/25 06:44:25;;;;;;;;;3.75;0.75;;;;;16.33;57.17;99094.09;5027497;28;45575;-66
2022/05/25 06:46:51;;;;;;;;;36.75;14.50;;;;;16.34;56.81;99098.44;5023827;28;46427;-64
2022/05/25 06:49:17;;;;;;;;;2.25;1.50;;;;;16.35;57.26;99098.34;5028823;28;45425;-64
2022/05/25 06:51:43;;;;;;;;;0.50;0.50;;;;;16.36;56.83;99109.84;4998837;28;45451;-63
2022/05/25 06:54:09;;;;;;;;;0.75;0.75;;;;;16.31;57.07;99106.63;5014608;28;45462;-63
2022/05/25 06:56:35;;;;;;;;;0.50;0.50;;;;;16.25;57.40;99110.56;5026571;28;45367;-63
2022/05/25 06:59:00;;;;;;;;;0.75;0.75;;;;;16.23;57.43;99111.59;5022540;28;45476;-64
2022/05/25 07:01:27;;;;;;;;;1.00;1.00;;;;;16.19;57.38;99116.25;5035861;28;45513;-64
2022/05/25 07:03:52;;;;;;;;;1.40;0.80;;;;;16.12;57.52;99114.91;5017644;28;45387;-64
2022/05/25 07:06:19;;;;;;;;;1.75;1.25;;;;;16.03;57.77;99112.84;5016240;28;45478;-64
2022/05/25 07:08:45;;;;;;;;;1.60;1.00;;;;;16.00;58.17;99121.84;5015709;28;45431;-64
2022/05/25 07:11:11;;;;;;;;;0.80;0.80;;;;;15.98;58.10;99112.25;5016006;28;45487;-63
2022/05/25 07:13:37;;;;;;;;;0.00;0.00;;;;;15.99;57.88;99116.63;5028136;28;45579;-64
2022/05/25 07:16:06;;;;;;;;;1.20;0.00;;;;;15.98;58.49;99133.53;5026129;28;46251;-64
2022/05/25 07:18:31;;;;;;;;;2.80;1.80;;;;;15.98;58.61;99117.59;5020595;28;45484;-64
2022/05/25 07:21:02;;;;;;;;;2.50;2.00;;;;;16.02;58.75;99133.25;5023190;28;45375;-63
2022/05/25 07:23:27;;;;;;;;;0.20;0.20;;;;;16.04;58.93;99133.16;5020696;28;45498;-63
2022/05/25 07:25:53;;;;;;;;;1.00;1.00;;;;;16.03;58.36;99140.28;5023799;28;45619;-63
2022/05/25 07:28:19;;;;;;;;;1.40;1.00;;;;;16.04;58.30;99138.47;5016440;28;45388;-63
2022/05/25 07:30:47;;;;;;;;;0.75;0.75;;;;;16.03;58.65;99140.28;5016168;28;45518;-64
2022/05/25 07:33:12;;;;;;;;;1.75;1.50;;;;;16.01;58.49;99141.31;4997999;28;45793;-63
2022/05/25 07:35:38;;;;;;;;;0.75;0.75;;;;;16.01;58.52;99144.84;4997694;28;48164;-64
2022/05/25 07:38:05;;;;;;;;;1.80;0.80;;;;;16.05;58.13;99135.72;5029078;28;45394;-63
2022/05/25 07:40:35;;;;;;;;;1.60;1.60;;;;;16.13;58.24;99139.69;5015814;28;45581;-63
2022/05/25 07:43:15;;;;;;;;;1.75;0.50;;;;;16.20;58.34;99128.59;5007883;28;45514;-65
2022/05/25 07:45:41;;;;;;;;;0.80;0.80;;;;;16.30;57.77;99139.50;5010808;28;46323;-65
2022/05/25 07:48:07;;;;;;;;;1.00;1.00;;;;;16.36;58.22;99129.34;5016113;28;45407;-65
2022/05/25 07:50:33;;;;;;;;;2.00;1.40;;;;;16.40;58.22;99135.31;5001077;28;45438;-63
2022/05/25 07:53:01;;;;;;;;;1.00;1.00;;;;;16.38;57.45;99140.75;4995746;28;45455;-64
2022/05/25 07:55:26;;;;;;;;;1.00;0.00;;;;;16.37;57.85;99131.03;4991346;28;47306;-63
2022/05/25 07:57:52;;;;;;;;;2.25;2.25;;;;;16.38;57.88;99138.06;5015527;28;45232;-64
2022/05/25 08:00:25;;;;;;;;;1.50;1.50;;;;;16.42;58.06;99137.88;5015266;28;45341;-65
2022/05/25 08:05:47;;;;;;;;;1.00;1.00;;;;;16.45;57.74;99137.66;5015614;28;45700;-64
2022/05/25 08:08:17;;;;;;;;;1.20;1.00;;;;;16.48;57.74;99143.66;5002086;28;45452;-65
2022/05/25 08:10:47;;;;;;;;;1.80;1.80;;;;;16.51;57.78;99139.94;5015326;28;45449;-65
2022/05/25 08:13:17;;;;;;;;;1.00;1.00;;;;;16.54;57.67;99145.94;5015552;28;45420;-65
2022/05/25 08:15:43;;;;;;;;;2.20;1.20;;;;;16.57;57.79;99151.06;5015309;28;46353;-65
2022/05/25 08:18:11;;;;;;;;;1.60;1.60;;;;;16.62;57.39;99142.75;4999988;28;45556;-65
2022/05/25 08:20:37;;;;;;;;;2.80;1.20;;;;;16.71;57.69;99144.88;5004472;28;45395;-63
2022/05/25 08:23:07;;;;;;;;;3.25;2.00;;;;;16.77;57.51;99149.78;5015164;28;45349;-65
2022/05/25 08:25:33;;;;;;;;;2.00;2.00;;;;;16.82;57.38;99138.84;5015184;28;46065;-65
2022/05/25 08:27:58;;;;;;;;;1.75;1.75;;;;;16.92;57.19;99145.31;5015216;28;45490;-65
2022/05/25 08:30:23;;;;;;;;;2.00;2.00;;;;;17.00;57.00;99148.31;5015330;28;45288;-64
2022/05/25 08:32:49;;;;;;;;;1.00;1.00;;;;;17.06;56.95;99154.09;5013063;28;45419;-63
2022/05/25 08:35:15;;;;;;;;;3.75;2.00;;;;;17.14;56.58;99148.25;4995458;28;46396;-63
2022/05/25 08:37:41;;;;;;;;;3.00;3.00;;;;;17.21;56.70;99154.88;5008327;28;45447;-65
2022/05/25 08:40:08;;;;;;;;;1.00;1.00;;;;;17.30;56.53;99150.72;4993118;28;45363;-62
2022/05/25 08:42:44;;;;;;;;;2.00;1.00;;;;;17.37;56.28;99152.03;5023196;28;45973;-63
2022/05/25 08:45:11;;;;;;;;;2.00;2.00;;;;;17.46;56.30;99154.06;5015130;28;45606;-63
2022/05/25 08:47:41;;;;;;;;;1.00;1.00;;;;;17.56;55.54;99144.50;5000868;28;45371;-65
2022/05/25 08:50:07;;;;;;;;;1.80;1.80;;;;;17.66;55.99;99156.28;5023397;28;45401;-65
2022/05/25 08:52:35;;;;;;;;;1.75;1.50;;;;;17.81;55.55;99148.16;5019319;28;45395;-65
2022/05/25 08:55:06;;;;;;;;;3.00;1.00;;;;;17.98;55.80;99147.84;5022716;28;45459;-63
2022/05/25 08:57:36;;;;;;;;;1.00;1.00;;;;;18.16;54.78;99143.03;5033609;28;45302;-64
2022/05/25 09:00:06;;;;;;;;;2.00;2.00;;;;;18.24;53.97;99141.56;5016650;28;45396;-64
2022/05/25 09:03:06;;;;;;;;;3.60;1.60;;;;;18.32;53.78;99143.66;5013569;28;45400;-64
2022/05/25 09:05:40;;;;;;;;;1.00;1.00;;;;;18.40;54.24;99136.81;5014397;28;45612;-64
2022/05/25 09:08:15;;;;;;;;;1.00;1.00;;;;;18.56;54.01;99141.06;5014986;28;45397;-64
2022/05/25 09:11:01;;;;;;;;;1.40;1.40;;;;;18.71;53.08;99145.31;5015696;28;45453;-64
2022/05/25 09:13:46;;;;;;;;;1.60;1.20;;;;;18.90;53.45;99147.50;5017606;28;45385;-63
2022/05/25 09:16:17;;;;;;;;;1.00;1.00;;;;;19.03;52.03;99154.47;5016411;28;45518;-63
2022/05/25 09:18:51;;;;;;;;;1.80;1.00;;;;;19.12;51.79;99131.53;5027921;28;45359;-64
2022/05/25 09:21:21;;;;;;;;;1.20;1.20;;;;;19.23;50.98;99144.97;5014594;28;45343;-64
2022/05/25 09:23:47;;;;;;;;;1.20;1.20;;;;;19.31;51.19;99145.25;5014336;28;45458;-63
2022/05/25 09:26:13;;;;;;;;;3.00;2.00;;;;;19.36;50.56;99147.56;5014090;28;46412;-63
2022/05/25 09:28:42;;;;;;;;;2.00;2.00;;;;;19.41;50.86;99132.03;5014389;28;45574;-63
2022/05/25 09:31:11;;;;;;;;;1.80;1.80;;;;;19.47;50.55;99142.25;5016070;28;45593;-63
2022/05/25 09:33:44;;;;;;;;;2.20;1.20;;;;;19.55;49.53;99139.91;5025155;28;45526;-64
2022/05/25 09:36:12;;;;;;;;;2.00;1.40;;;;;19.59;50.13;99141.38;5030675;28;46870;-63
2022/05/25 09:38:53;;;;;;;;;2.40;1.60;;;;;19.65;49.72;99135.53;5033773;28;45433;-64
2022/05/25 09:41:23;;;;;;;;;2.00;2.00;;;;;19.70;49.55;99154.75;5031124;28;45513;-64
2022/05/25 09:43:54;;;;;;;;;0.40;0.40;;;;;19.77;50.16;99155.16;5020708;28;45459;-64
2022/05/25 09:46:35;;;;;;;;;3.00;3.00;;;;;19.81;49.52;99152.09;5021002;28;46251;-64
2022/05/25 09:49:11;;;;;;;;;2.00;2.00;;;;;19.88;49.19;99157.00;5015590;28;45541;-64
2022/05/25 09:51:40;;;;;;;;;2.00;1.00;;;;;19.93;49.10;99141.44;5033404;28;45346;-64
2022/05/25 09:54:48;;;;;;;;;2.20;2.20;;;;;19.98;49.06;99150.78;5032751;28;45617;-64
2022/05/25 09:57:40;;;;;;;;;2.20;2.20;;;;;20.07;49.14;99141.19;5020312;28;45633;-63
2022/05/25 10:00:10;;;;;;;;;5.20;2.80;;;;;20.19;48.48;99142.91;5014835;28;45390;-65
2022/05/25 10:03:13;;;;;;;;;1.00;1.00;;;;;20.33;47.38;99155.19;5013428;28;45490;-65
2022/05/25 10:06:17;;;;;;;;;1.00;1.00;;;;;20.43;48.52;99146.34;5010859;28;45578;-63
2022/05/25 10:08:44;;;;;;;;;1.00;1.00;;;;;20.56;46.64;99140.84;5033228;28;46170;-63
2022/05/25 10:11:27;;;;;;;;;2.00;2.00;;;;;20.59;45.92;99156.69;5021254;28;45375;-64
2022/05/25 10:14:13;;;;;;;;;2.20;1.00;;;;;20.62;46.19;99142.16;5013580;28;45465;-64
2022/05/25 10:16:38;;;;;;;;;1.00;1.00;;;;;20.68;46.79;99155.91;5027577;28;45369;-63
2022/05/25 10:19:11;;;;;;;;;2.25;2.25;;;;;20.76;46.71;99132.06;5013516;28;46458;-64
2022/05/25 10:21:36;;;;;;;;;3.80;2.80;;;;;20.92;46.28;99128.13;5014137;28;45529;-65
2022/05/25 10:24:22;;;;;;;;;1.75;1.75;;;;;21.14;45.71;99130.69;5013007;28;45423;-65
2022/05/25 10:26:51;;;;;;;;;1.00;1.00;;;;;21.27;44.39;99157.41;5013213;28;45533;-65
2022/05/25 10:38:38;;;;;;;;;3.00;1.80;;;;;21.30;45.08;99123.09;5023486;28;45469;-65
2022/05/25 10:41:37;;;;;;;;;2.00;1.00;;;;;21.31;45.29;99126.63;5018265;28;46115;-65
2022/05/25 10:44:07;;;;;;;;;1.80;1.20;;;;;21.28;44.63;99137.66;5032955;28;45476;-66
2022/05/25 10:46:33;;;;;;;;;1.80;1.80;;;;;21.28;44.53;99127.78;5024855;28;45452;-66
2022/05/25 10:49:08;;;;;;;;;2.00;2.00;;;;;21.27;44.29;99134.13;5026409;28;45470;-65
2022/05/25 10:51:44;;;;;;;;;2.40;2.00;;;;;21.26;44.33;99142.28;5022582;28;46370;-65
2022/05/25 10:54:45;;;;;;;;;1.00;1.00;;;;;21.22;43.49;99137.16;5015367;28;45477;-65
2022/05/25 10:57:47;;;;;;;;;1.60;1.60;;;;;21.20;44.28;99127.53;5009388;28;45422;-66
2022/05/25 11:00:20;;;;;;;;;1.00;1.00;;;;;21.18;44.69;99135.69;5014115;28;45510;-65
2022/05/25 11:03:06;;;;;;;;;1.40;1.40;;;;;21.26;44.10;99132.41;5024293;28;45595;-65
2022/05/25 11:05:49;;;;;;;;;2.00;2.00;;;;;21.36;42.93;99136.00;5028952;28;45462;-65
2022/05/25 11:08:35;;;;;;;;;2.60;1.40;;;;;21.37;43.60;99132.34;5030309;28;45418;-64
2022/05/25 11:11:12;;;;;;;;;0.00;0.00;;;;;21.40;43.78;99123.19;5016745;28;45568;-64
2022/05/25 11:13:51;;;;;;;;;1.00;1.00;;;;;21.43;43.19;99133.66;5033767;28;46389;-64
2022/05/25 11:16:26;;;;;;;;;1.00;1.00;;;;;21.54;44.05;99129.09;5035732;28;45555;-64
2022/05/25 11:18:52;;;;;;;;;1.00;1.00;;;;;21.67;42.71;99144.13;5028526;28;45557;-64
2022/05/25 11:21:40;;;;;;;;;0.00;0.00;;;;;21.73;42.56;99141.78;5016461;28;45432;-64
2022/05/25 11:24:24;;;;;;;;;2.00;2.00;;;;;21.81;42.50;99143.78;5005757;28;45704;-63
2022/05/25 11:26:55;;;;;;;;;1.00;1.00;;;;;21.84;42.47;99130.97;5015906;28;45473;-63
2022/05/25 11:29:35;;;;;;;;;1.80;1.60;;;;;21.97;42.55;99132.59;5030337;28;45434;-64
2022/05/25 11:32:39;;;;;;;;;1.00;1.00;;;;;22.19;41.76;99146.75;5051087;28;45405;-64
2022/05/25 11:35:21;;;;;;;;;1.60;1.60;;;;;22.29;41.58;99131.50;5024589;28;46577;-64
2022/05/25 11:38:05;;;;;;;;;1.00;1.00;;;;;22.32;41.00;99149.19;5035531;28;45444;-64
2022/05/25 11:40:42;;;;;;;;;1.60;1.60;;;;;22.33;40.17;99134.78;5022942;28;45427;-64
2022/05/25 11:43:38;;;;;;;;;1.00;1.00;;;;;22.40;40.14;99149.38;5015779;28;46032;-64
2022/05/25 11:46:11;;;;;;;;;0.40;0.40;;;;;22.43;40.70;99150.94;5028667;28;45608;-64
2022/05/25 11:49:06;;;;;;;;;1.00;0.60;;;;;22.52;40.90;99180.53;5028974;28;45453;-64
2022/05/25 11:51:45;;;;;;;;;1.20;1.00;;;;;22.54;39.40;99162.44;5025458;28;45298;-64
2022/05/25 11:54:26;;;;;;;;;2.40;2.00;;;;;22.48;40.00;99154.91;5015951;28;45327;-65
2022/05/25 11:57:17;;;;;;;;;1.00;1.00;;;;;22.40;40.75;99143.16;5028162;28;45528;-64
2022/05/25 11:59:45;;;;;;;;;0.20;0.20;;;;;22.43;40.12;99157.19;4997243;28;45423;-64
2022/05/25 12:02:37;;;;;;;;;2.00;1.40;;;;;22.50;39.73;99150.25;5014842;28;45367;-64
2022/05/25 12:05:20;;;;;;;;;0.60;0.60;;;;;22.52;40.25;99163.56;5029066;28;45359;-64
2022/05/25 12:08:03;;;;;;;;;0.00;0.00;;;;;22.57;40.00;99154.13;5015376;28;45379;-64
2022/05/25 12:11:06;;;;;;;;;2.00;2.00;;;;;22.59;40.41;99157.50;5027947;28;45445;-64
2022/05/25 12:13:49;;;;;;;;;1.60;1.20;;;;;22.59;40.61;99153.97;5034126;28;45476;-64
2022/05/25 12:16:22;;;;;;;;;3.00;2.00;;;;;22.57;40.53;99158.63;5033095;28;45417;-64